Time;durP1;ratioP1;P1;durP2;ratioP2;P2;SDS_P1;SDS_P2;PMS_P1;PMS_P2;Temp;Humidity;BMP_temperature;BMP_pressure;BME280_temperature;BME280_humidity;BME280_pressure;Samples;Min_cycle;Max_cycle;Signal;HPM_P1;HPM_P2
2022/12/30 00:00:56;;;;;;;6.18;1.80;;;7.40;99.90;;;;;;5045047;28;20119;-40
2022/12/30 00:03:21;;;;;;;7.57;1.85;;;7.40;99.90;;;;;;5044124;28;20520;-38
2022/12/30 00:05:47;;;;;;;4.93;1.45;;;7.40;99.90;;;;;;5043823;28;20041;-41
2022/12/30 00:10:57;;;;;;;7.53;1.65;;;7.40;99.90;;;;;;5043939;28;20083;-38
2022/12/30 00:33:07;;;;;;;;;;;7.10;99.90;;;;;;5044362;28;20100;-39
2022/12/30 00:35:37;;;;;;;4.38;1.55;;;7.00;99.90;;;;;;5043683;28;19909;-39
2022/12/30 00:38:02;;;;;;;8.55;1.30;;;7.00;99.90;;;;;;5043504;28;20025;-38
2022/12/30 00:40:28;;;;;;;6.13;1.50;;;6.90;99.90;;;;;;5043106;28;20039;-40
2022/12/30 00:43:09;;;;;;;4.57;1.30;;;6.90;99.90;;;;;;5044206;28;20033;-39
2022/12/30 00:45:43;;;;;;;9.88;1.63;;;6.90;99.90;;;;;;5044246;28;20029;-39
2022/12/30 00:56:24;;;;;;;5.60;1.20;;;6.80;99.90;;;;;;5042929;28;20063;-39
2022/12/30 00:58:50;;;;;;;6.25;1.60;;;6.80;99.90;;;;;;5043456;28;20029;-36
2022/12/30 01:01:16;;;;;;;5.85;1.60;;;6.80;99.90;;;;;;5041464;28;20441;-41
2022/12/30 01:03:41;;;;;;;7.40;1.90;;;6.70;99.90;;;;;;5043752;28;20029;-38
2022/12/30 01:06:08;;;;;;;3.03;1.42;;;6.80;99.90;;;;;;5043009;28;20112;-38
2022/12/30 01:08:34;;;;;;;6.13;1.45;;;6.70;99.90;;;;;;5042964;28;20031;-39
2022/12/30 01:11:08;;;;;;;6.75;1.48;;;6.70;99.90;;;;;;5042533;28;20670;-40
2022/12/30 01:13:33;;;;;;;7.22;1.90;;;6.70;99.90;;;;;;5044022;28;20114;-41
2022/12/30 01:16:06;;;;;;;5.00;1.40;;;6.70;99.90;;;;;;5042671;28;20013;-40
2022/12/30 01:18:32;;;;;;;4.10;1.42;;;6.70;99.90;;;;;;5043461;28;20044;-38
2022/12/30 01:21:01;;;;;;;5.93;1.50;;;6.60;99.90;;;;;;5043250;28;20017;-42
2022/12/30 01:23:27;;;;;;;6.72;2.45;;;6.60;99.90;;;;;;5043635;28;20143;-39
2022/12/30 01:25:52;;;;;;;8.82;1.60;;;6.60;99.90;;;;;;5043091;28;20104;-37
2022/12/30 01:28:21;;;;;;;3.63;1.20;;;6.60;99.90;;;;;;5042602;28;20029;-39
2022/12/30 01:30:46;;;;;;;3.80;1.60;;;6.60;99.90;;;;;;5042003;28;20032;-40
2022/12/30 01:33:12;;;;;;;6.70;1.70;;;6.60;99.90;;;;;;5042802;28;20064;-40
2022/12/30 01:35:37;;;;;;;5.13;1.90;;;6.50;99.90;;;;;;5042015;28;20033;-40
2022/12/30 01:38:03;;;;;;;5.13;1.33;;;6.50;99.90;;;;;;5042653;28;20044;-41
2022/12/30 01:40:28;;;;;;;5.28;1.45;;;6.50;99.90;;;;;;5042129;28;20017;-40
2022/12/30 01:42:54;;;;;;;5.22;1.77;;;6.50;99.90;;;;;;5042766;28;20021;-39
2022/12/30 01:45:21;;;;;;;4.90;1.20;;;6.50;99.90;;;;;;5043234;28;20025;-38
2022/12/30 01:48:01;;;;;;;3.95;1.30;;;6.50;99.90;;;;;;5043107;28;20496;-39
2022/12/30 01:50:32;;;;;;;4.03;1.42;;;6.40;99.90;;;;;;5042818;28;20043;-39
2022/12/30 01:53:00;;;;;;;4.75;1.42;;;6.40;99.90;;;;;;5042698;28;20041;-39
2022/12/30 01:55:37;;;;;;;3.50;1.10;;;6.50;99.90;;;;;;5042866;28;20036;-36
2022/12/30 01:58:06;;;;;;;5.03;1.40;;;6.40;99.90;;;;;;5041763;28;20032;-40
2022/12/30 02:00:35;;;;;;;5.85;1.52;;;6.40;99.90;;;;;;5043107;28;20583;-40
2022/12/30 02:03:01;;;;;;;6.72;1.58;;;6.40;99.90;;;;;;5041800;28;20056;-41
2022/12/30 02:05:31;;;;;;;6.78;1.42;;;6.40;99.90;;;;;;5042405;28;20067;-38
2022/12/30 02:08:06;;;;;;;4.70;1.35;;;6.30;99.90;;;;;;5040954;28;20390;-39
2022/12/30 02:10:34;;;;;;;4.00;1.38;;;6.30;99.90;;;;;;5041955;28;20053;-38
2022/12/30 02:13:00;;;;;;;6.90;1.50;;;6.30;99.90;;;;;;5041266;28;20032;-39
2022/12/30 02:15:29;;;;;;;8.50;1.60;;;6.30;99.90;;;;;;5042375;28;20423;-40
2022/12/30 02:18:07;;;;;;;5.38;1.42;;;6.30;99.90;;;;;;5041478;28;20997;-38
2022/12/30 02:21:01;;;;;;;5.43;1.60;;;6.40;99.90;;;;;;5042112;28;20039;-36
2022/12/30 02:23:56;;;;;;;5.97;1.42;;;6.40;99.90;;;;;;5042170;28;20021;-38
2022/12/30 02:26:50;;;;;;;3.03;1.15;;;6.40;99.90;;;;;;5021683;28;20047;-42
2022/12/30 02:29:28;;;;;;;4.68;1.40;;;6.40;99.90;;;;;;5040549;28;20229;-41
2022/12/30 02:32:05;;;;;;;5.88;1.60;;;6.40;99.90;;;;;;5041812;28;20067;-37
2022/12/30 02:34:36;;;;;;;3.78;1.38;;;6.30;99.90;;;;;;5041451;28;20041;-40
2022/12/30 02:37:20;;;;;;;6.65;1.60;;;6.30;99.90;;;;;;5041336;28;20067;-41
2022/12/30 02:39:56;;;;;;;4.90;1.50;;;6.30;99.90;;;;;;5040845;28;20063;-38
2022/12/30 02:45:41;;;;;;;3.75;1.40;;;6.20;99.90;;;;;;5041093;28;20098;-40
2022/12/30 02:48:17;;;;;;;6.63;1.60;;;6.20;99.90;;;;;;5040928;28;20071;-39
2022/12/30 02:53:32;;;;;;;4.47;1.50;;;6.10;99.90;;;;;;5041463;28;20044;-39
2022/12/30 02:55:58;;;;;;;6.55;2.00;;;6.20;99.90;;;;;;5030725;28;20132;-41
2022/12/30 02:58:27;;;;;;;5.82;1.50;;;6.20;99.90;;;;;;5041526;28;20040;-40
2022/12/30 03:03:59;;;;;;;6.05;1.50;;;6.10;99.90;;;;;;5041874;28;20028;-41
2022/12/30 03:06:48;;;;;;;4.47;1.60;;;6.10;99.90;;;;;;5032276;28;20123;-40
2022/12/30 03:09:25;;;;;;;3.17;1.30;;;6.10;99.90;;;;;;5041603;28;20159;-40
2022/12/30 03:12:09;;;;;;;5.57;1.85;;;6.10;99.90;;;;;;5042171;28;20063;-41
2022/12/30 03:14:37;;;;;;;;;;;6.10;99.90;;;;;;5041203;28;20068;-39
2022/12/30 03:17:08;;;;;;;3.63;1.30;;;6.10;99.90;;;;;;5040999;28;19919;-40
2022/12/30 03:19:39;;;;;;;4.88;2.10;;;6.10;99.90;;;;;;5041340;28;20472;-40
2022/12/30 03:27:02;;;;;;;7.47;2.10;;;6.00;99.90;;;;;;5040160;28;20029;-39
2022/12/30 03:27:41;;;;;;;5.78;1.60;;;6.10;99.90;;;;;;5045366;28;20431;-40
2022/12/30 03:30:07;;;;;;;7.75;2.17;;;6.10;99.90;;;;;;5044558;28;20021;-39
2022/12/30 03:32:32;;;;;;;9.73;2.08;;;6.10;99.90;;;;;;5043917;28;20037;-37
2022/12/30 03:34:58;;;;;;;5.88;1.48;;;6.10;99.90;;;;;;5043835;28;20111;-40
2022/12/30 03:37:55;;;;;;;7.85;2.17;;;6.10;99.90;;;;;;5045895;28;20028;-40
2022/12/30 03:40:35;;;;;;;8.77;1.80;;;6.10;99.90;;;;;;5039414;28;20366;-41
2022/12/30 03:43:02;;;;;;;8.25;2.25;;;6.10;99.90;;;;;;5043055;28;20522;-39
2022/12/30 03:45:27;;;;;;;5.60;1.50;;;6.00;99.90;;;;;;5044569;28;20680;-40
2022/12/30 03:47:53;;;;;;;5.55;1.60;;;6.00;99.90;;;;;;5044394;28;20044;-40
2022/12/30 03:50:21;;;;;;;7.03;1.67;;;6.00;99.90;;;;;;5043677;28;20024;-41
2022/12/30 03:52:47;;;;;;;6.63;1.85;;;6.00;99.90;;;;;;5044437;28;20033;-40
2022/12/30 03:55:12;;;;;;;7.57;1.70;;;6.00;99.90;;;;;;5043685;28;20388;-38
2022/12/30 03:57:38;;;;;;;10.90;1.98;;;6.00;99.90;;;;;;5044170;28;20083;-40
2022/12/30 04:00:08;;;;;;;4.57;1.50;;;6.00;99.90;;;;;;5044802;28;20035;-40
2022/12/30 04:02:34;;;;;;;6.68;1.65;;;6.00;99.90;;;;;;5045263;28;20033;-40
2022/12/30 04:05:00;;;;;;;5.65;1.88;;;6.00;99.90;;;;;;5044516;28;20143;-40
2022/12/30 04:07:25;;;;;;;5.82;1.67;;;6.00;99.90;;;;;;5045171;28;20103;-40
2022/12/30 04:09:51;;;;;;;6.25;2.08;;;6.00;99.90;;;;;;5044051;28;20036;-40
2022/12/30 04:12:16;;;;;;;6.75;1.70;;;6.00;99.90;;;;;;5044202;28;20087;-41
2022/12/30 04:14:42;;;;;;;5.90;1.90;;;6.00;99.90;;;;;;5044691;28;20140;-41
2022/12/30 04:17:07;;;;;;;4.95;1.70;;;6.10;99.90;;;;;;5043128;28;20028;-39
2022/12/30 04:19:33;;;;;;;7.25;2.08;;;6.10;99.90;;;;;;5044678;28;20036;-40
2022/12/30 04:21:58;;;;;;;6.25;1.75;;;6.10;99.90;;;;;;5044109;28;20028;-41
2022/12/30 04:24:24;;;;;;;7.38;2.08;;;6.10;99.90;;;;;;5044157;28;20025;-40
2022/12/30 04:26:50;;;;;;;5.35;1.63;;;6.10;99.90;;;;;;5044708;28;20033;-40
2022/12/30 04:29:16;;;;;;;5.78;1.60;;;6.00;99.90;;;;;;5044206;28;20642;-40
2022/12/30 04:31:41;;;;;;;7.57;1.85;;;6.00;99.90;;;;;;5043643;28;20083;-40
2022/12/30 04:34:07;;;;;;;6.15;1.75;;;6.00;99.90;;;;;;5043328;28;20065;-37
2022/12/30 04:36:33;;;;;;;7.63;1.77;;;5.90;99.90;;;;;;5044050;28;20029;-38
2022/12/30 04:38:58;;;;;;;6.22;1.75;;;5.90;99.90;;;;;;5042927;28;20074;-40
2022/12/30 04:41:24;;;;;;;8.55;1.90;;;5.90;99.90;;;;;;5044206;28;20794;-40
2022/12/30 04:43:49;;;;;;;7.68;1.85;;;5.90;99.90;;;;;;5043112;28;20052;-39
2022/12/30 04:46:15;;;;;;;8.23;1.67;;;5.80;99.90;;;;;;5033264;28;20025;-41
2022/12/30 04:48:41;;;;;;;7.57;1.73;;;5.80;99.90;;;;;;5041056;28;20067;-40
2022/12/30 04:51:07;;;;;;;8.43;1.77;;;5.80;99.90;;;;;;5043568;28;20099;-40
2022/12/30 04:53:32;;;;;;;5.35;1.80;;;5.80;99.90;;;;;;5043134;28;20076;-40
2022/12/30 04:55:58;;;;;;;8.05;1.92;;;5.80;99.90;;;;;;5043204;28;20219;-41
2022/12/30 04:58:25;;;;;;;4.35;1.80;;;5.80;99.90;;;;;;5043426;28;20017;-39
2022/12/30 05:00:52;;;;;;;3.58;1.65;;;5.70;99.90;;;;;;5043292;28;20025;-41
2022/12/30 05:03:18;;;;;;;9.80;1.83;;;5.70;99.90;;;;;;5043554;28;20025;-40
2022/12/30 05:05:44;;;;;;;8.70;1.60;;;5.70;99.90;;;;;;5044503;28;20075;-40
2022/12/30 05:08:10;;;;;;;8.40;2.00;;;5.70;99.90;;;;;;5042751;28;20461;-40
2022/12/30 05:10:37;;;;;;;8.75;2.03;;;5.70;99.90;;;;;;5043588;28;20033;-41
2022/12/30 05:13:03;;;;;;;11.05;2.38;;;5.70;99.90;;;;;;5042384;28;20029;-40
2022/12/30 05:15:28;;;;;;;6.80;1.80;;;5.60;99.90;;;;;;5043324;28;20379;-40
2022/12/30 05:17:54;;;;;;;6.60;1.80;;;5.70;99.90;;;;;;5042658;28;20013;-38
2022/12/30 05:20:20;;;;;;;12.70;2.35;;;5.60;99.90;;;;;;5041232;28;20051;-40
2022/12/30 05:22:48;;;;;;;7.53;1.67;;;5.60;99.90;;;;;;5042291;28;20017;-40
2022/12/30 05:27:58;;;;;;;9.98;2.40;;;5.60;99.90;;;;;;5042504;28;20476;-40
2022/12/30 05:30:24;;;;;;;7.38;2.15;;;5.60;99.90;;;;;;5043034;28;20033;-39
2022/12/30 05:32:49;;;;;;;5.57;1.83;;;5.60;99.90;;;;;;5043195;28;20040;-40
2022/12/30 05:35:15;;;;;;;4.25;1.60;;;5.60;99.90;;;;;;5041839;28;20074;-41
2022/12/30 05:37:41;;;;;;;10.85;2.97;;;5.60;99.90;;;;;;5043512;28;20467;-37
2022/12/30 05:40:07;;;;;;;8.40;2.05;;;5.60;99.90;;;;;;5042394;28;20021;-39
2022/12/30 05:42:33;;;;;;;8.98;2.30;;;5.60;99.90;;;;;;5042122;28;20036;-39
2022/12/30 05:44:59;;;;;;;6.45;1.60;;;5.60;99.90;;;;;;5042442;28;20075;-36
2022/12/30 05:47:24;;;;;;;10.55;2.50;;;5.60;99.90;;;;;;5041541;28;20045;-40
2022/12/30 05:49:50;;;;;;;8.35;1.80;;;5.60;99.90;;;;;;5041914;28;20104;-40
2022/12/30 05:52:16;;;;;;;5.45;2.00;;;5.60;99.90;;;;;;5042370;28;20032;-37
2022/12/30 05:54:42;;;;;;;9.85;2.10;;;5.60;99.90;;;;;;5042734;28;20029;-37
2022/12/30 05:57:08;;;;;;;6.07;1.85;;;5.60;99.90;;;;;;5041721;28;20051;-38
2022/12/30 05:59:33;;;;;;;7.50;1.80;;;5.60;99.90;;;;;;5042862;28;20100;-42
2022/12/30 06:01:59;;;;;;;6.68;2.20;;;5.60;99.90;;;;;;5042296;28;20384;-39
2022/12/30 06:04:25;;;;;;;7.20;2.00;;;5.60;99.90;;;;;;5042148;28;20466;-40
2022/12/30 06:06:51;;;;;;;11.63;2.05;;;5.70;99.90;;;;;;5042727;28;20021;-40
2022/12/30 06:09:16;;;;;;;10.10;2.90;;;5.60;99.90;;;;;;5041755;28;20033;-37
2022/12/30 06:11:42;;;;;;;6.88;1.90;;;5.70;99.90;;;;;;5041172;28;20029;-40
2022/12/30 06:14:09;;;;;;;8.40;1.60;;;5.70;99.90;;;;;;5041848;28;20123;-40
2022/12/30 06:16:35;;;;;;;9.50;2.13;;;5.80;99.90;;;;;;5042187;28;20029;-39
2022/12/30 06:19:00;;;;;;;7.00;2.08;;;5.80;99.90;;;;;;5041915;28;20098;-40
2022/12/30 06:21:26;;;;;;;10.40;2.65;;;5.80;99.90;;;;;;5041887;28;20186;-37
2022/12/30 06:23:51;;;;;;;9.23;2.20;;;5.80;99.90;;;;;;5041708;28;20071;-40
2022/12/30 06:26:17;;;;;;;7.30;2.70;;;5.80;99.90;;;;;;5041317;28;20021;-40
2022/12/30 06:28:42;;;;;;;9.07;2.38;;;5.80;99.90;;;;;;5042282;28;20103;-39
2022/12/30 06:31:08;;;;;;;6.93;2.05;;;5.80;99.90;;;;;;5040919;28;20094;-37
2022/12/30 06:33:35;;;;;;;7.15;2.05;;;5.80;99.90;;;;;;5041854;28;20075;-37
2022/12/30 06:36:01;;;;;;;7.72;2.03;;;5.80;99.90;;;;;;5045904;28;20469;-40
2022/12/30 06:38:27;;;;;;;8.90;2.55;;;5.80;99.90;;;;;;5041097;28;20021;-40
2022/12/30 06:40:52;;;;;;;9.73;2.95;;;5.80;99.90;;;;;;5042165;28;20025;-41
2022/12/30 06:43:18;;;;;;;7.35;1.90;;;5.80;99.90;;;;;;5041776;28;20036;-40
2022/12/30 06:45:44;;;;;;;10.20;2.70;;;5.90;99.90;;;;;;5038724;28;20461;-40
2022/12/30 06:48:10;;;;;;;9.07;2.03;;;5.90;99.90;;;;;;5039794;28;20029;-38
2022/12/30 06:50:36;;;;;;;8.32;2.30;;;5.90;99.90;;;;;;5041235;28;20545;-40
2022/12/30 06:53:02;;;;;;;8.07;2.33;;;5.90;99.90;;;;;;5039732;28;20062;-38
2022/12/30 06:55:28;;;;;;;9.57;2.47;;;5.80;99.90;;;;;;5041196;28;20031;-38
2022/12/30 06:57:54;;;;;;;9.10;3.35;;;5.90;99.90;;;;;;5041521;28;20021;-38
2022/12/30 07:00:19;;;;;;;12.82;2.55;;;5.80;99.90;;;;;;5039944;28;20467;-40
2022/12/30 07:02:45;;;;;;;9.90;2.53;;;5.80;99.90;;;;;;5041865;28;20036;-38
2022/12/30 07:05:11;;;;;;;7.63;2.75;;;5.80;99.90;;;;;;5041184;28;20033;-40
2022/12/30 07:07:36;;;;;;;9.25;2.95;;;5.80;99.90;;;;;;5040659;28;20046;-40
2022/12/30 07:10:03;;;;;;;7.50;2.75;;;5.90;99.90;;;;;;5041147;28;20052;-41
2022/12/30 07:12:28;;;;;;;5.15;1.92;;;5.90;99.90;;;;;;5041743;28;20108;-40
2022/12/30 07:14:54;;;;;;;5.82;2.40;;;5.90;99.90;;;;;;5040829;28;20110;-40
2022/12/30 07:17:19;;;;;;;9.35;2.25;;;5.90;99.90;;;;;;5041324;28;20028;-38
2022/12/30 07:19:46;;;;;;;15.20;2.47;;;5.90;99.90;;;;;;5041604;28;20075;-39
2022/12/30 07:22:12;;;;;;;10.55;2.60;;;5.90;99.90;;;;;;5040451;28;20025;-40
2022/12/30 07:24:38;;;;;;;9.02;2.30;;;6.00;99.90;;;;;;5041300;28;20017;-36
2022/12/30 07:27:03;;;;;;;8.57;3.15;;;6.00;99.90;;;;;;5039760;28;20036;-40
2022/12/30 07:29:30;;;;;;;8.77;2.20;;;6.10;99.90;;;;;;5041512;28;20021;-42
2022/12/30 07:31:57;;;;;;;7.78;3.10;;;6.20;99.90;;;;;;5041513;28;20029;-40
2022/12/30 07:34:22;;;;;;;10.02;2.75;;;6.20;99.90;;;;;;5039790;28;20269;-39
2022/12/30 07:36:48;;;;;;;6.30;2.20;;;6.20;99.90;;;;;;5041468;28;20025;-38
2022/12/30 07:39:13;;;;;;;7.88;2.33;;;6.20;99.90;;;;;;5041057;28;20476;-38
2022/12/30 07:41:39;;;;;;;7.65;2.28;;;6.20;99.90;;;;;;5041116;28;20563;-40
2022/12/30 07:44:04;;;;;;;9.90;2.45;;;6.10;99.90;;;;;;5040551;28;20475;-40
2022/12/30 07:46:30;;;;;;;7.18;2.67;;;6.10;99.90;;;;;;5041523;28;20059;-40
2022/12/30 07:48:55;;;;;;;9.73;2.83;;;6.10;99.90;;;;;;5040278;28;20871;-40
2022/12/30 07:51:21;;;;;;;9.70;2.83;;;6.10;99.90;;;;;;5041424;28;20880;-39
2022/12/30 07:53:47;;;;;;;7.40;2.30;;;6.10;99.90;;;;;;5042972;28;20489;-43
2022/12/30 07:56:13;;;;;;;8.98;3.15;;;6.10;99.90;;;;;;5040840;28;20758;-39
2022/12/30 07:58:39;;;;;;;11.73;2.50;;;6.10;99.90;;;;;;5041531;28;20093;-37
2022/12/30 08:01:11;;;;;;;10.32;2.47;;;6.10;99.90;;;;;;5029578;28;20025;-40
2022/12/30 08:03:37;;;;;;;10.27;2.60;;;6.20;99.90;;;;;;5040011;28;20024;-41
2022/12/30 08:06:05;;;;;;;9.82;3.25;;;6.20;99.90;;;;;;5040992;28;20025;-39
2022/12/30 08:08:31;;;;;;;10.77;2.78;;;6.20;99.90;;;;;;5041668;28;20040;-40
2022/12/30 08:10:57;;;;;;;9.52;2.45;;;6.20;99.90;;;;;;5042805;28;20025;-37
2022/12/30 08:13:23;;;;;;;8.63;2.40;;;6.20;99.90;;;;;;5046344;28;20506;-39
2022/12/30 08:15:49;;;;;;;11.57;2.70;;;6.20;99.90;;;;;;5046658;28;20120;-40
2022/12/30 08:18:15;;;;;;;8.93;3.03;;;6.20;99.90;;;;;;5045505;28;20060;-37
2022/12/30 08:20:41;;;;;;;6.80;2.22;;;6.30;99.90;;;;;;5046886;28;20043;-39
2022/12/30 08:23:06;;;;;;;8.40;2.65;;;6.30;99.90;;;;;;5044711;28;20028;-40
2022/12/30 08:25:33;;;;;;;10.60;2.53;;;6.30;99.90;;;;;;5045573;28;20358;-39
2022/12/30 08:28:01;;;;;;;8.15;2.53;;;6.30;99.90;;;;;;5046299;28;20025;-39
2022/12/30 08:30:27;;;;;;;8.15;2.67;;;6.40;99.90;;;;;;5045293;28;20017;-40
2022/12/30 08:32:52;;;;;;;7.55;3.10;;;6.40;99.90;;;;;;5045876;28;20055;-41
2022/12/30 08:35:18;;;;;;;6.07;2.10;;;6.50;99.90;;;;;;5045338;28;20029;-39
2022/12/30 08:37:43;;;;;;;6.32;2.90;;;6.50;99.90;;;;;;5044926;28;20021;-39
2022/12/30 08:40:10;;;;;;;6.00;2.67;;;6.50;99.90;;;;;;5044554;28;20025;-41
2022/12/30 08:42:36;;;;;;;8.75;2.20;;;6.60;99.90;;;;;;5046044;28;20025;-38
2022/12/30 08:45:03;;;;;;;8.75;2.47;;;6.60;99.90;;;;;;5044478;28;20550;-41
2022/12/30 08:47:29;;;;;;;5.78;1.80;;;6.60;99.90;;;;;;5045595;28;20025;-40
2022/12/30 08:49:54;;;;;;;9.50;2.25;;;6.70;99.90;;;;;;5045964;28;20040;-42
2022/12/30 08:52:20;;;;;;;7.47;2.50;;;6.70;99.90;;;;;;5044537;28;20893;-38
2022/12/30 08:54:45;;;;;;;7.65;2.50;;;6.80;99.90;;;;;;5046017;28;20887;-40
2022/12/30 08:57:12;;;;;;;8.63;1.88;;;6.80;99.90;;;;;;5043449;28;20021;-39
2022/12/30 08:59:38;;;;;;;5.25;1.83;;;6.80;99.90;;;;;;5044811;28;20029;-40
2022/12/30 09:02:03;;;;;;;5.82;1.70;;;6.90;99.90;;;;;;5044315;28;20033;-41
2022/12/30 09:04:29;;;;;;;7.43;1.83;;;6.90;99.90;;;;;;5044777;28;20087;-38
2022/12/30 09:06:54;;;;;;;9.85;2.63;;;7.00;99.90;;;;;;5044699;28;20032;-39
2022/12/30 09:09:20;;;;;;;5.47;2.25;;;7.00;99.90;;;;;;5044075;28;20037;-41
2022/12/30 09:11:47;;;;;;;6.70;1.85;;;7.10;99.90;;;;;;5045905;28;20056;-40
2022/12/30 09:14:14;;;;;;;6.15;1.90;;;7.10;99.90;;;;;;5043826;28;20033;-39
2022/12/30 09:16:40;;;;;;;6.15;3.05;;;7.10;99.90;;;;;;5045007;28;20492;-38
2022/12/30 09:19:05;;;;;;;3.92;1.58;;;7.20;99.90;;;;;;5045141;28;20032;-40
2022/12/30 09:21:31;;;;;;;4.70;1.90;;;7.20;99.90;;;;;;5044376;28;20143;-40
2022/12/30 09:23:57;;;;;;;9.00;1.90;;;7.30;99.90;;;;;;5044762;28;20115;-36
2022/12/30 09:26:25;;;;;;;5.53;1.67;;;7.30;99.90;;;;;;5043904;28;20437;-40
2022/12/30 09:28:51;;;;;;;4.70;1.45;;;7.40;99.90;;;;;;5044910;28;20020;-39
2022/12/30 09:31:17;;;;;;;6.57;2.22;;;7.40;99.90;;;;;;5044210;28;20039;-41
2022/12/30 09:33:43;;;;;;;6.05;2.00;;;7.40;99.90;;;;;;5043858;28;20048;-38
2022/12/30 09:36:09;;;;;;;4.75;1.88;;;7.50;99.90;;;;;;5044914;28;20028;-40
2022/12/30 09:38:35;;;;;;;6.47;1.73;;;7.50;99.90;;;;;;5044240;28;20501;-39
2022/12/30 09:41:07;;;;;;;4.63;1.40;;;7.50;99.90;;;;;;5043747;28;20100;-41
2022/12/30 09:43:36;;;;;;;3.70;1.60;;;7.60;99.90;;;;;;5044388;28;20033;-39
2022/12/30 09:46:26;;;;;;;4.85;1.60;;;7.60;99.90;;;;;;5043980;28;20061;-41
2022/12/30 09:49:00;;;;;;;5.88;2.05;;;7.70;99.90;;;;;;5043853;28;20028;-38
2022/12/30 09:51:36;;;;;;;5.65;1.83;;;7.70;99.90;;;;;;5044596;28;20485;-41
2022/12/30 09:54:12;;;;;;;4.53;2.15;;;7.70;99.90;;;;;;5043663;28;20048;-39
2022/12/30 09:56:42;;;;;;;6.18;1.90;;;7.70;99.90;;;;;;5043913;28;20032;-40
2022/12/30 09:59:20;;;;;;;5.28;1.73;;;7.70;99.90;;;;;;5043675;28;20086;-42
2022/12/30 10:01:50;;;;;;;6.07;2.58;;;7.80;99.90;;;;;;5044515;28;20036;-41
2022/12/30 10:04:18;;;;;;;4.57;1.35;;;7.80;99.90;;;;;;5043768;28;20035;-40
2022/12/30 10:06:51;;;;;;;6.93;1.63;;;7.80;99.90;;;;;;5044897;28;20039;-40
2022/12/30 10:09:40;;;;;;;7.85;1.77;;;7.80;99.90;;;;;;5043164;28;20029;-38
2022/12/30 10:12:31;;;;;;;6.60;1.88;;;7.80;99.90;;;;;;5024310;28;20029;-42
2022/12/30 10:15:21;;;;;;;6.32;1.63;;;7.90;99.90;;;;;;5043096;28;20075;-37
2022/12/30 10:17:46;;;;;;;5.13;1.75;;;7.90;99.90;;;;;;5043252;28;20138;-40
2022/12/30 10:20:26;;;;;;;4.68;1.80;;;7.90;99.90;;;;;;5043735;28;20412;-40
2022/12/30 10:23:03;;;;;;;5.57;1.40;;;8.00;99.90;;;;;;5043041;28;20067;-40
2022/12/30 10:25:29;;;;;;;4.45;1.60;;;8.00;99.90;;;;;;5039810;28;20517;-40
2022/12/30 10:27:56;;;;;;;5.03;1.48;;;8.00;99.90;;;;;;5043195;28;20047;-39
2022/12/30 10:30:28;;;;;;;4.28;1.20;;;8.10;99.90;;;;;;5041787;28;20115;-40
2022/12/30 10:32:59;;;;;;;4.00;1.30;;;8.10;99.90;;;;;;5043724;28;20021;-40
2022/12/30 10:35:30;;;;;;;3.83;1.30;;;8.20;99.90;;;;;;5043831;28;20036;-41
2022/12/30 10:38:16;;;;;;;4.43;1.23;;;8.20;99.90;;;;;;5043557;28;20025;-42
2022/12/30 10:40:56;;;;;;;2.55;1.00;;;8.20;99.90;;;;;;5043585;28;20033;-41
2022/12/30 10:43:30;;;;;;;3.15;1.17;;;8.30;99.90;;;;;;5043608;28;20148;-40
2022/12/30 10:46:45;;;;;;;3.45;1.23;;;8.30;99.90;;;;;;5042869;28;20092;-40
2022/12/30 10:49:33;;;;;;;4.53;1.30;;;8.30;99.90;;;;;;5032995;28;20033;-42
2022/12/30 10:52:01;;;;;;;3.78;1.05;;;8.30;99.90;;;;;;5033308;28;20040;-38
2022/12/30 10:54:26;;;;;;;2.67;1.23;;;8.40;99.90;;;;;;5042872;28;20033;-39
2022/12/30 10:56:52;;;;;;;3.83;1.10;;;8.40;99.90;;;;;;5043422;28;20020;-40
2022/12/30 10:59:27;;;;;;;4.88;1.40;;;8.40;99.90;;;;;;5042157;28;20469;-41
2022/12/30 11:01:58;;;;;;;4.38;1.40;;;8.40;99.90;;;;;;5043815;28;20027;-40
2022/12/30 11:04:37;;;;;;;3.63;1.40;;;8.40;99.90;;;;;;5042918;28;20052;-40
2022/12/30 11:07:07;;;;;;;2.25;1.00;;;8.50;99.90;;;;;;5040135;28;20263;-40
2022/12/30 11:09:32;;;;;;;3.22;1.00;;;8.50;99.90;;;;;;5043266;28;20127;-39
2022/12/30 11:15:08;;;;;;;5.45;2.28;;;8.50;99.90;;;;;;5043636;28;20079;-40
2022/12/30 11:18:00;;;;;;;5.80;2.70;;;8.50;99.90;;;;;;5043210;28;20033;-40
2022/12/30 11:20:37;;;;;;;4.72;2.30;;;8.50;99.90;;;;;;5041173;28;20037;-41
2022/12/30 11:23:09;;;;;;;6.68;2.20;;;8.50;99.90;;;;;;5043253;28;20025;-40
2022/12/30 11:25:42;;;;;;;3.78;1.17;;;8.50;99.90;;;;;;5043472;28;20100;-40
2022/12/30 11:28:17;;;;;;;3.47;1.20;;;8.50;99.90;;;;;;5042097;28;20505;-40
2022/12/30 11:31:02;;;;;;;3.25;1.17;;;8.60;99.90;;;;;;5043552;28;20119;-41
2022/12/30 11:33:37;;;;;;;3.72;1.35;;;8.60;99.90;;;;;;5033645;28;20060;-41
2022/12/30 11:36:15;;;;;;;4.35;1.50;;;8.60;99.90;;;;;;5041676;28;20021;-40
2022/12/30 11:38:43;;;;;;;4.57;1.38;;;8.60;99.90;;;;;;5042708;28;20029;-40
2022/12/30 11:41:18;;;;;;;4.80;1.50;;;8.60;99.90;;;;;;5040635;28;20028;-38
2022/12/30 11:44:00;;;;;;;4.93;1.48;;;8.60;99.90;;;;;;5042209;28;20029;-40
2022/12/30 11:46:53;;;;;;;3.70;1.17;;;8.60;99.90;;;;;;5044016;28;20091;-40
2022/12/30 11:49:30;;;;;;;5.70;1.33;;;8.60;99.90;;;;;;5041689;28;20045;-39
2022/12/30 11:52:17;;;;;;;4.18;1.38;;;8.70;99.90;;;;;;5045144;28;20750;-37
2022/12/30 11:54:47;;;;;;;6.82;1.50;;;8.70;99.90;;;;;;5044527;28;20048;-39
2022/12/30 11:57:30;;;;;;;3.17;1.27;;;8.70;99.90;;;;;;5045105;28;20487;-41
2022/12/30 12:00:00;;;;;;;3.65;1.13;;;8.70;99.90;;;;;;5045486;28;20144;-40
2022/12/30 12:02:32;;;;;;;4.15;1.45;;;8.70;99.90;;;;;;5044430;28;20025;-40
2022/12/30 12:04:58;;;;;;;2.37;1.10;;;8.70;99.90;;;;;;5044809;28;20021;-40
2022/12/30 12:07:36;;;;;;;5.65;1.13;;;8.70;99.90;;;;;;5043596;28;20021;-40
2022/12/30 12:10:23;;;;;;;4.97;1.33;;;8.70;99.90;;;;;;5042934;28;20029;-40
2022/12/30 12:12:55;;;;;;;3.45;1.60;;;8.80;99.90;;;;;;5043849;28;20068;-40
2022/12/30 12:15:35;;;;;;;4.10;1.30;;;8.80;99.90;;;;;;5043521;28;20048;-38
2022/12/30 12:18:24;;;;;;;4.00;1.38;;;8.70;99.90;;;;;;5044550;28;20024;-38
2022/12/30 12:21:00;;;;;;;2.97;0.90;;;8.80;99.90;;;;;;5033830;28;20128;-40
2022/12/30 12:23:46;;;;;;;5.15;1.30;;;8.80;99.90;;;;;;5043841;28;20743;-40
2022/12/30 12:26:18;;;;;;;5.68;1.27;;;8.80;99.90;;;;;;5044934;28;20032;-40
2022/12/30 12:28:45;;;;;;;3.65;0.88;;;8.90;99.90;;;;;;5044567;28;20032;-40
2022/12/30 12:31:25;;;;;;;3.20;1.10;;;8.90;99.90;;;;;;5043678;28;20056;-40
2022/12/30 12:34:10;;;;;;;3.80;1.42;;;8.90;99.90;;;;;;5008575;28;1042343;-40
2022/12/30 12:37:02;;;;;;;2.67;1.20;;;9.00;99.90;;;;;;5025717;28;20056;-38
2022/12/30 12:40:00;;;;;;;2.85;1.10;;;9.00;99.90;;;;;;5041797;28;20033;-42
2022/12/30 12:42:47;;;;;;;3.70;1.10;;;9.00;99.90;;;;;;5045781;28;20138;-40
2022/12/30 12:45:51;;;;;;;3.63;1.10;;;9.00;99.90;;;;;;5044798;28;20055;-39
2022/12/30 12:48:48;;;;;;;3.55;1.13;;;9.00;99.90;;;;;;5045219;28;20566;-38
2022/12/30 12:51:20;;;;;;;5.22;1.20;;;9.10;99.90;;;;;;5037577;28;20029;-38
2022/12/30 12:54:16;;;;;;;6.47;1.60;;;9.10;99.90;;;;;;5045252;28;20064;-39
2022/12/30 12:57:00;;;;;;;5.43;1.10;;;9.10;99.90;;;;;;5045309;28;20024;-39
2022/12/30 12:59:58;;;;;;;6.53;1.30;;;9.00;99.90;;;;;;5044118;28;20035;-38
2022/12/30 13:02:46;;;;;;;4.55;1.17;;;9.00;99.90;;;;;;5044450;28;20037;-39
2022/12/30 13:05:27;;;;;;;4.90;1.92;;;9.10;99.90;;;;;;5044151;28;20025;-39
2022/12/30 13:08:21;;;;;;;3.72;1.13;;;9.00;99.90;;;;;;5025333;28;20129;-40
2022/12/30 13:11:14;;;;;;;4.05;1.30;;;9.00;99.90;;;;;;5044852;28;20061;-40
2022/12/30 13:13:57;;;;;;;7.43;1.27;;;9.10;99.90;;;;;;5044542;28;20056;-40
2022/12/30 13:16:41;;;;;;;4.20;1.50;;;9.00;99.90;;;;;;5043318;28;20037;-41
2022/12/30 13:19:13;;;;;;;5.85;1.70;;;9.00;99.90;;;;;;5044026;28;20029;-40
2022/12/30 13:21:40;;;;;;;3.95;1.67;;;9.00;99.90;;;;;;5045153;28;20029;-40
2022/12/30 13:24:07;;;;;;;3.17;1.30;;;9.00;99.90;;;;;;5044637;28;20033;-39
2022/12/30 13:26:35;;;;;;;4.78;1.60;;;9.00;99.90;;;;;;5040660;28;20052;-40
2022/12/30 13:29:02;;;;;;;5.00;1.27;;;8.90;99.90;;;;;;5044717;28;20031;-39
2022/12/30 13:31:40;;;;;;;6.63;1.40;;;8.90;99.90;;;;;;5044748;28;20021;-40
2022/12/30 13:34:34;;;;;;;4.00;1.25;;;9.00;99.90;;;;;;5043979;28;20056;-38
2022/12/30 13:37:37;;;;;;;4.70;1.23;;;9.00;99.90;;;;;;5042082;28;20040;-41
2022/12/30 13:40:15;;;;;;;4.10;1.02;;;9.00;99.90;;;;;;5040699;28;20037;-40
2022/12/30 13:42:52;;;;;;;4.25;1.10;;;9.00;99.90;;;;;;5035109;28;20380;-40
2022/12/30 13:45:23;;;;;;;2.13;0.95;;;9.00;99.90;;;;;;5043667;28;20556;-39
2022/12/30 13:47:55;;;;;;;2.22;0.88;;;9.00;99.90;;;;;;5044046;28;20033;-37
2022/12/30 13:50:25;;;;;;;3.42;1.23;;;9.00;99.90;;;;;;5044372;28;20028;-38
2022/12/30 13:52:53;;;;;;;4.40;1.10;;;9.00;99.90;;;;;;5033667;28;20036;-39
2022/12/30 13:55:30;;;;;;;3.25;0.90;;;9.00;99.90;;;;;;5043485;28;20544;-39
2022/12/30 13:58:05;;;;;;;2.70;1.30;;;9.00;99.90;;;;;;5044385;28;20040;-40
2022/12/30 14:00:33;;;;;;;2.08;0.88;;;9.00;99.90;;;;;;5044048;28;20045;-40
2022/12/30 14:03:09;;;;;;;2.85;1.30;;;9.00;99.90;;;;;;5043368;28;20036;-38
2022/12/30 14:05:38;;;;;;;2.85;1.00;;;9.00;99.90;;;;;;5044296;28;20052;-40